Pagina principale
METAR-TAF:

METAR-TAF

Aeroporti :

Frosinone, Italia

latitudine: 41-38N, longitudine: 013-18E, altezza: 180 m

Osservazione

Il bollettino è stato emesso 58 minuti fa, alle 09:55 UTC
Vento 4 kt da sud/sud-est
Temperature 21°C
Umidità 64%
Pressione 1016 hPa
Visibilità 10 km o più
Poco nuvoloso ad un'altezza di 3500 ft

METAR: LIRH 150955Z 16004KT 9999 FEW035 21/14 Q1016 RMK SCT SCT060 MON LIB NC VIS MIN 9999 WIND THR16 18003KT BLU

Ora: 12:53 (10:53 UTC)

Previsione

Il bollettino è stato emesso 2 ore e 53 minuti fa, alle 08:00 UTC
Previsione valida dal 15 alle 09 UTC al 15 alle 18 UTC
Vento 3 kt da direzioni variabili
Visibilità 10 km o più
Poco nuvoloso ad un'altezza di 3000 ft

TAF: LIRH 150800Z 1509/1518 VRB03KT 9999 FEW030

Osservazioni e previsioni meteorologiche di più di 4000 aeroporti (messaggi METAR e TAF).

Le stazioni disponibili sono rappresentate dai dischi gialli e rossi sulla carta.

Puntare il mouse per vedere il nome della stazione.

Clicca sopra per visualizzare le osservazioni e previsioni meteorologiche.

Per cambiare la mappa : fare clic sui pulsanti verdi con una croce nera per ingrandire, il pulsante verde con un trattino per diminuire, o sulla freccia verde per le mappe adiacenti.


METAR-TAF: